sensor_id;sensor_type;location;lat;lon;timestamp;P1;durP1;ratioP1;P2;durP2;ratioP2
6288;SDS011;3177;49.880;8.836;2024-01-30T00:00:52;13.60;;;7.73;;
6288;SDS011;3177;49.880;8.836;2024-01-30T00:03:19;11.20;;;8.53;;
6288;SDS011;3177;49.880;8.836;2024-01-30T00:05:46;11.00;;;7.67;;
6288;SDS011;3177;49.880;8.836;2024-01-30T00:08:13;11.13;;;7.47;;
6288;SDS011;3177;49.880;8.836;2024-01-30T00:10:42;10.03;;;7.07;;
6288;SDS011;3177;49.880;8.836;2024-01-30T00:13:09;11.00;;;7.67;;
6288;SDS011;3177;49.880;8.836;2024-01-30T00:15:36;12.50;;;8.27;;
6288;SDS011;3177;49.880;8.836;2024-01-30T00:18:03;9.60;;;7.03;;
6288;SDS011;3177;49.880;8.836;2024-01-30T00:20:29;8.60;;;7.53;;
6288;SDS011;3177;49.880;8.836;2024-01-30T00:22:56;11.80;;;8.00;;
6288;SDS011;3177;49.880;8.836;2024-01-30T00:25:23;11.47;;;7.63;;
6288;SDS011;3177;49.880;8.836;2024-01-30T00:27:52;13.93;;;7.50;;
6288;SDS011;3177;49.880;8.836;2024-01-30T00:30:19;21.33;;;8.60;;
6288;SDS011;3177;49.880;8.836;2024-01-30T00:32:46;11.33;;;7.60;;
6288;SDS011;3177;49.880;8.836;2024-01-30T00:35:14;8.67;;;7.77;;
6288;SDS011;3177;49.880;8.836;2024-01-30T00:37:41;10.93;;;9.07;;
6288;SDS011;3177;49.880;8.836;2024-01-30T00:40:08;10.80;;;7.87;;
6288;SDS011;3177;49.880;8.836;2024-01-30T00:42:40;9.33;;;7.67;;
6288;SDS011;3177;49.880;8.836;2024-01-30T00:45:12;10.87;;;8.40;;
6288;SDS011;3177;49.880;8.836;2024-01-30T00:47:39;11.23;;;7.50;;
6288;SDS011;3177;49.880;8.836;2024-01-30T00:50:07;10.03;;;7.27;;
6288;SDS011;3177;49.880;8.836;2024-01-30T00:52:34;9.33;;;7.37;;
6288;SDS011;3177;49.880;8.836;2024-01-30T00:55:01;7.93;;;6.87;;
6288;SDS011;3177;49.880;8.836;2024-01-30T00:57:28;11.47;;;7.53;;
6288;SDS011;3177;49.880;8.836;2024-01-30T00:59:55;8.70;;;7.70;;
6288;SDS011;3177;49.880;8.836;2024-01-30T01:02:24;9.17;;;6.63;;
6288;SDS011;3177;49.880;8.836;2024-01-30T01:04:51;8.80;;;7.03;;
6288;SDS011;3177;49.880;8.836;2024-01-30T01:07:18;8.23;;;7.37;;
6288;SDS011;3177;49.880;8.836;2024-01-30T01:09:45;11.07;;;8.40;;
6288;SDS011;3177;49.880;8.836;2024-01-30T01:12:12;11.03;;;7.03;;
6288;SDS011;3177;49.880;8.836;2024-01-30T01:14:39;9.57;;;7.67;;
6288;SDS011;3177;49.880;8.836;2024-01-30T01:17:07;11.07;;;7.67;;
6288;SDS011;3177;49.880;8.836;2024-01-30T01:19:35;10.90;;;8.20;;
6288;SDS011;3177;49.880;8.836;2024-01-30T01:22:02;15.43;;;9.00;;
6288;SDS011;3177;49.880;8.836;2024-01-30T01:24:30;14.13;;;10.00;;
6288;SDS011;3177;49.880;8.836;2024-01-30T01:26:57;19.20;;;10.43;;
6288;SDS011;3177;49.880;8.836;2024-01-30T01:29:24;10.67;;;8.77;;
6288;SDS011;3177;49.880;8.836;2024-01-30T01:31:53;11.60;;;8.37;;
6288;SDS011;3177;49.880;8.836;2024-01-30T01:34:21;11.40;;;8.83;;
6288;SDS011;3177;49.880;8.836;2024-01-30T01:36:50;14.50;;;9.17;;
6288;SDS011;3177;49.880;8.836;2024-01-30T01:39:20;12.20;;;9.33;;
6288;SDS011;3177;49.880;8.836;2024-01-30T01:41:47;12.20;;;8.57;;
6288;SDS011;3177;49.880;8.836;2024-01-30T01:44:14;12.07;;;7.57;;
6288;SDS011;3177;49.880;8.836;2024-01-30T01:46:41;10.50;;;7.60;;
6288;SDS011;3177;49.880;8.836;2024-01-30T01:49:09;19.23;;;8.47;;
6288;SDS011;3177;49.880;8.836;2024-01-30T01:51:36;13.07;;;7.87;;
6288;SDS011;3177;49.880;8.836;2024-01-30T01:54:06;10.73;;;7.90;;
6288;SDS011;3177;49.880;8.836;2024-01-30T01:56:33;11.43;;;8.50;;
6288;SDS011;3177;49.880;8.836;2024-01-30T01:59:04;10.53;;;8.13;;
6288;SDS011;3177;49.880;8.836;2024-01-30T02:01:31;12.27;;;8.40;;
6288;SDS011;3177;49.880;8.836;2024-01-30T02:03:59;10.77;;;7.43;;
6288;SDS011;3177;49.880;8.836;2024-01-30T02:06:26;11.70;;;8.10;;
6288;SDS011;3177;49.880;8.836;2024-01-30T02:08:53;10.80;;;8.67;;
6288;SDS011;3177;49.880;8.836;2024-01-30T02:11:22;11.80;;;7.67;;
6288;SDS011;3177;49.880;8.836;2024-01-30T02:13:49;10.50;;;7.07;;
6288;SDS011;3177;49.880;8.836;2024-01-30T02:16:16;9.53;;;7.83;;
6288;SDS011;3177;49.880;8.836;2024-01-30T02:18:43;12.33;;;7.40;;
6288;SDS011;3177;49.880;8.836;2024-01-30T02:21:14;11.63;;;7.80;;
6288;SDS011;3177;49.880;8.836;2024-01-30T02:23:41;12.00;;;8.50;;
6288;SDS011;3177;49.880;8.836;2024-01-30T02:26:09;7.93;;;7.10;;
6288;SDS011;3177;49.880;8.836;2024-01-30T02:28:37;14.13;;;8.20;;
6288;SDS011;3177;49.880;8.836;2024-01-30T02:31:04;13.13;;;8.17;;
6288;SDS011;3177;49.880;8.836;2024-01-30T02:33:31;12.83;;;8.03;;
6288;SDS011;3177;49.880;8.836;2024-01-30T02:35:58;12.07;;;7.83;;
6288;SDS011;3177;49.880;8.836;2024-01-30T02:38:27;13.53;;;7.87;;
6288;SDS011;3177;49.880;8.836;2024-01-30T02:40:54;13.03;;;8.33;;
6288;SDS011;3177;49.880;8.836;2024-01-30T02:43:21;12.73;;;8.60;;
6288;SDS011;3177;49.880;8.836;2024-01-30T02:45:48;9.83;;;7.70;;
6288;SDS011;3177;49.880;8.836;2024-01-30T02:48:15;13.80;;;8.20;;
6288;SDS011;3177;49.880;8.836;2024-01-30T02:50:42;9.60;;;7.67;;
6288;SDS011;3177;49.880;8.836;2024-01-30T02:53:11;12.47;;;8.17;;
6288;SDS011;3177;49.880;8.836;2024-01-30T02:55:39;10.70;;;7.97;;
6288;SDS011;3177;49.880;8.836;2024-01-30T02:58:06;9.93;;;7.43;;
6288;SDS011;3177;49.880;8.836;2024-01-30T03:00:33;12.03;;;8.30;;
6288;SDS011;3177;49.880;8.836;2024-01-30T03:03:00;12.40;;;8.67;;
6288;SDS011;3177;49.880;8.836;2024-01-30T03:05:28;9.40;;;8.13;;
6288;SDS011;3177;49.880;8.836;2024-01-30T03:07:55;8.70;;;7.17;;
6288;SDS011;3177;49.880;8.836;2024-01-30T03:10:22;10.93;;;7.37;;
6288;SDS011;3177;49.880;8.836;2024-01-30T03:12:50;12.10;;;8.13;;
6288;SDS011;3177;49.880;8.836;2024-01-30T03:15:17;12.17;;;8.30;;
6288;SDS011;3177;49.880;8.836;2024-01-30T03:17:44;10.47;;;8.10;;
6288;SDS011;3177;49.880;8.836;2024-01-30T03:20:11;11.40;;;7.50;;
6288;SDS011;3177;49.880;8.836;2024-01-30T03:22:38;10.80;;;7.60;;
6288;SDS011;3177;49.880;8.836;2024-01-30T03:25:05;14.10;;;9.17;;
6288;SDS011;3177;49.880;8.836;2024-01-30T03:27:33;8.80;;;7.67;;
6288;SDS011;3177;49.880;8.836;2024-01-30T03:30:01;10.83;;;8.47;;
6288;SDS011;3177;49.880;8.836;2024-01-30T03:32:28;10.40;;;8.17;;
6288;SDS011;3177;49.880;8.836;2024-01-30T03:34:55;11.57;;;7.93;;
6288;SDS011;3177;49.880;8.836;2024-01-30T03:37:23;12.90;;;7.83;;
6288;SDS011;3177;49.880;8.836;2024-01-30T03:39:50;10.40;;;7.63;;
6288;SDS011;3177;49.880;8.836;2024-01-30T03:42:17;11.13;;;8.07;;
6288;SDS011;3177;49.880;8.836;2024-01-30T03:44:44;11.43;;;8.17;;
6288;SDS011;3177;49.880;8.836;2024-01-30T03:47:12;8.13;;;6.57;;
6288;SDS011;3177;49.880;8.836;2024-01-30T03:49:39;14.23;;;8.23;;
6288;SDS011;3177;49.880;8.836;2024-01-30T03:52:06;15.70;;;8.87;;
6288;SDS011;3177;49.880;8.836;2024-01-30T03:54:34;8.80;;;7.77;;
6288;SDS011;3177;49.880;8.836;2024-01-30T03:57:01;10.43;;;7.77;;
6288;SDS011;3177;49.880;8.836;2024-01-30T03:59:28;10.27;;;7.07;;
6288;SDS011;3177;49.880;8.836;2024-01-30T04:01:55;11.13;;;8.27;;
6288;SDS011;3177;49.880;8.836;2024-01-30T04:04:23;9.83;;;7.40;;
6288;SDS011;3177;49.880;8.836;2024-01-30T04:06:50;10.27;;;8.30;;
6288;SDS011;3177;49.880;8.836;2024-01-30T04:09:17;11.67;;;7.73;;
6288;SDS011;3177;49.880;8.836;2024-01-30T04:11:44;10.33;;;8.03;;
6288;SDS011;3177;49.880;8.836;2024-01-30T04:14:11;9.20;;;7.87;;
6288;SDS011;3177;49.880;8.836;2024-01-30T04:16:38;10.30;;;8.40;;
6288;SDS011;3177;49.880;8.836;2024-01-30T04:19:06;10.43;;;7.07;;
6288;SDS011;3177;49.880;8.836;2024-01-30T04:21:34;9.83;;;7.50;;
6288;SDS011;3177;49.880;8.836;2024-01-30T04:24:01;8.93;;;7.67;;
6288;SDS011;3177;49.880;8.836;2024-01-30T04:26:28;11.10;;;7.87;;
6288;SDS011;3177;49.880;8.836;2024-01-30T04:28:55;14.33;;;8.93;;
6288;SDS011;3177;49.880;8.836;2024-01-30T04:31:22;10.13;;;8.60;;
6288;SDS011;3177;49.880;8.836;2024-01-30T04:33:49;17.40;;;9.27;;
6288;SDS011;3177;49.880;8.836;2024-01-30T04:36:16;11.87;;;9.07;;
6288;SDS011;3177;49.880;8.836;2024-01-30T04:38:44;11.50;;;8.93;;
6288;SDS011;3177;49.880;8.836;2024-01-30T04:41:11;11.77;;;9.27;;
6288;SDS011;3177;49.880;8.836;2024-01-30T04:43:38;10.63;;;9.33;;
6288;SDS011;3177;49.880;8.836;2024-01-30T04:46:06;13.77;;;10.17;;
6288;SDS011;3177;49.880;8.836;2024-01-30T04:48:33;12.57;;;8.77;;
6288;SDS011;3177;49.880;8.836;2024-01-30T04:51:00;13.80;;;8.57;;
6288;SDS011;3177;49.880;8.836;2024-01-30T04:53:29;10.83;;;8.33;;
6288;SDS011;3177;49.880;8.836;2024-01-30T04:55:57;12.47;;;9.00;;
6288;SDS011;3177;49.880;8.836;2024-01-30T04:58:24;10.37;;;8.23;;
6288;SDS011;3177;49.880;8.836;2024-01-30T05:00:51;12.07;;;9.13;;
6288;SDS011;3177;49.880;8.836;2024-01-30T05:03:18;9.23;;;8.33;;
6288;SDS011;3177;49.880;8.836;2024-01-30T05:05:47;12.50;;;7.73;;
6288;SDS011;3177;49.880;8.836;2024-01-30T05:08:14;15.00;;;9.33;;
6288;SDS011;3177;49.880;8.836;2024-01-30T05:10:41;10.33;;;8.77;;
6288;SDS011;3177;49.880;8.836;2024-01-30T05:13:10;16.77;;;9.93;;
6288;SDS011;3177;49.880;8.836;2024-01-30T05:15:38;15.10;;;9.23;;
6288;SDS011;3177;49.880;8.836;2024-01-30T05:18:05;12.83;;;9.07;;
6288;SDS011;3177;49.880;8.836;2024-01-30T05:20:32;8.77;;;7.80;;
6288;SDS011;3177;49.880;8.836;2024-01-30T05:22:59;12.87;;;7.97;;
6288;SDS011;3177;49.880;8.836;2024-01-30T05:25:26;12.40;;;8.67;;
6288;SDS011;3177;49.880;8.836;2024-01-30T05:27:53;10.83;;;8.33;;
6288;SDS011;3177;49.880;8.836;2024-01-30T05:30:22;10.40;;;8.17;;
6288;SDS011;3177;49.880;8.836;2024-01-30T05:32:49;11.27;;;7.97;;
6288;SDS011;3177;49.880;8.836;2024-01-30T05:35:17;10.77;;;8.23;;
6288;SDS011;3177;49.880;8.836;2024-01-30T05:37:47;11.53;;;8.40;;
6288;SDS011;3177;49.880;8.836;2024-01-30T05:40:15;12.70;;;9.03;;
6288;SDS011;3177;49.880;8.836;2024-01-30T05:42:42;9.03;;;7.73;;
6288;SDS011;3177;49.880;8.836;2024-01-30T05:45:09;12.87;;;8.50;;
6288;SDS011;3177;49.880;8.836;2024-01-30T05:47:37;15.03;;;8.47;;
6288;SDS011;3177;49.880;8.836;2024-01-30T05:50:05;12.17;;;8.13;;
6288;SDS011;3177;49.880;8.836;2024-01-30T05:52:32;11.40;;;8.30;;
6288;SDS011;3177;49.880;8.836;2024-01-30T05:54:59;13.90;;;8.40;;
6288;SDS011;3177;49.880;8.836;2024-01-30T05:57:26;12.33;;;8.57;;
6288;SDS011;3177;49.880;8.836;2024-01-30T05:59:53;12.07;;;8.40;;
6288;SDS011;3177;49.880;8.836;2024-01-30T06:02:20;10.50;;;8.17;;
6288;SDS011;3177;49.880;8.836;2024-01-30T06:04:49;12.53;;;7.77;;
6288;SDS011;3177;49.880;8.836;2024-01-30T06:07:16;15.00;;;8.60;;
6288;SDS011;3177;49.880;8.836;2024-01-30T06:09:43;9.40;;;7.17;;
6288;SDS011;3177;49.880;8.836;2024-01-30T06:12:11;11.33;;;8.67;;
6288;SDS011;3177;49.880;8.836;2024-01-30T06:14:38;11.87;;;8.80;;
6288;SDS011;3177;49.880;8.836;2024-01-30T06:17:07;10.53;;;8.23;;
6288;SDS011;3177;49.880;8.836;2024-01-30T06:19:34;9.70;;;7.70;;
6288;SDS011;3177;49.880;8.836;2024-01-30T06:22:06;12.27;;;9.27;;
6288;SDS011;3177;49.880;8.836;2024-01-30T06:24:33;10.97;;;8.17;;
6288;SDS011;3177;49.880;8.836;2024-01-30T06:27:00;10.43;;;7.97;;
6288;SDS011;3177;49.880;8.836;2024-01-30T06:29:27;14.83;;;8.20;;
6288;SDS011;3177;49.880;8.836;2024-01-30T06:31:54;12.80;;;8.63;;
6288;SDS011;3177;49.880;8.836;2024-01-30T06:34:22;13.63;;;8.80;;
6288;SDS011;3177;49.880;8.836;2024-01-30T06:36:49;14.53;;;8.37;;
6288;SDS011;3177;49.880;8.836;2024-01-30T06:39:17;14.30;;;7.80;;
6288;SDS011;3177;49.880;8.836;2024-01-30T06:41:44;13.40;;;8.80;;
6288;SDS011;3177;49.880;8.836;2024-01-30T06:44:12;13.67;;;8.83;;
6288;SDS011;3177;49.880;8.836;2024-01-30T06:46:39;13.90;;;9.23;;
6288;SDS011;3177;49.880;8.836;2024-01-30T06:49:06;15.20;;;9.43;;
6288;SDS011;3177;49.880;8.836;2024-01-30T06:51:33;11.93;;;8.77;;
6288;SDS011;3177;49.880;8.836;2024-01-30T06:54:00;8.83;;;7.93;;
6288;SDS011;3177;49.880;8.836;2024-01-30T06:56:29;10.90;;;8.43;;
6288;SDS011;3177;49.880;8.836;2024-01-30T06:58:56;14.90;;;9.80;;
6288;SDS011;3177;49.880;8.836;2024-01-30T07:01:27;13.13;;;8.77;;
6288;SDS011;3177;49.880;8.836;2024-01-30T07:03:54;14.50;;;8.47;;
6288;SDS011;3177;49.880;8.836;2024-01-30T07:06:21;14.53;;;9.27;;
6288;SDS011;3177;49.880;8.836;2024-01-30T07:08:49;13.17;;;9.63;;
6288;SDS011;3177;49.880;8.836;2024-01-30T07:11:18;15.10;;;9.23;;
6288;SDS011;3177;49.880;8.836;2024-01-30T07:13:48;15.87;;;8.53;;
6288;SDS011;3177;49.880;8.836;2024-01-30T07:16:15;15.33;;;9.97;;
6288;SDS011;3177;49.880;8.836;2024-01-30T07:18:43;15.33;;;9.40;;
6288;SDS011;3177;49.880;8.836;2024-01-30T07:21:10;11.37;;;8.60;;
6288;SDS011;3177;49.880;8.836;2024-01-30T07:23:37;13.93;;;8.90;;
6288;SDS011;3177;49.880;8.836;2024-01-30T07:26:04;12.63;;;9.73;;
6288;SDS011;3177;49.880;8.836;2024-01-30T07:28:31;13.37;;;9.70;;
6288;SDS011;3177;49.880;8.836;2024-01-30T07:31:00;16.30;;;10.30;;
6288;SDS011;3177;49.880;8.836;2024-01-30T07:33:27;10.03;;;8.07;;
6288;SDS011;3177;49.880;8.836;2024-01-30T07:35:54;13.83;;;9.43;;
6288;SDS011;3177;49.880;8.836;2024-01-30T07:38:21;12.57;;;10.00;;
6288;SDS011;3177;49.880;8.836;2024-01-30T07:40:48;14.67;;;9.73;;
6288;SDS011;3177;49.880;8.836;2024-01-30T07:43:16;10.73;;;9.30;;
6288;SDS011;3177;49.880;8.836;2024-01-30T07:45:43;12.73;;;9.07;;
6288;SDS011;3177;49.880;8.836;2024-01-30T07:48:11;16.07;;;10.33;;
6288;SDS011;3177;49.880;8.836;2024-01-30T07:50:39;14.03;;;9.27;;
6288;SDS011;3177;49.880;8.836;2024-01-30T07:53:06;17.97;;;9.80;;
6288;SDS011;3177;49.880;8.836;2024-01-30T07:55:33;16.00;;;10.00;;
6288;SDS011;3177;49.880;8.836;2024-01-30T07:58:00;15.13;;;10.13;;
6288;SDS011;3177;49.880;8.836;2024-01-30T08:00:28;16.47;;;9.37;;
6288;SDS011;3177;49.880;8.836;2024-01-30T08:02:56;11.77;;;9.17;;
6288;SDS011;3177;49.880;8.836;2024-01-30T08:05:25;16.40;;;9.83;;
6288;SDS011;3177;49.880;8.836;2024-01-30T08:07:52;14.57;;;9.80;;
6288;SDS011;3177;49.880;8.836;2024-01-30T08:10:19;16.13;;;9.97;;
6288;SDS011;3177;49.880;8.836;2024-01-30T08:12:47;11.80;;;9.60;;
6288;SDS011;3177;49.880;8.836;2024-01-30T08:15:14;19.57;;;11.00;;
6288;SDS011;3177;49.880;8.836;2024-01-30T08:17:41;24.23;;;11.33;;
6288;SDS011;3177;49.880;8.836;2024-01-30T08:20:10;14.53;;;10.63;;
6288;SDS011;3177;49.880;8.836;2024-01-30T08:22:39;15.90;;;11.70;;
6288;SDS011;3177;49.880;8.836;2024-01-30T08:25:06;17.77;;;12.37;;
6288;SDS011;3177;49.880;8.836;2024-01-30T08:27:34;17.30;;;11.77;;
6288;SDS011;3177;49.880;8.836;2024-01-30T08:30:03;17.87;;;12.10;;
6288;SDS011;3177;49.880;8.836;2024-01-30T08:32:31;18.70;;;13.17;;
6288;SDS011;3177;49.880;8.836;2024-01-30T08:34:58;25.00;;;14.50;;
6288;SDS011;3177;49.880;8.836;2024-01-30T08:37:28;25.63;;;15.63;;
6288;SDS011;3177;49.880;8.836;2024-01-30T08:39:56;26.13;;;15.07;;
6288;SDS011;3177;49.880;8.836;2024-01-30T08:42:23;32.10;;;16.67;;
6288;SDS011;3177;49.880;8.836;2024-01-30T08:44:51;34.40;;;19.00;;
6288;SDS011;3177;49.880;8.836;2024-01-30T08:47:18;27.80;;;17.57;;
6288;SDS011;3177;49.880;8.836;2024-01-30T08:49:45;22.70;;;16.63;;
6288;SDS011;3177;49.880;8.836;2024-01-30T08:52:13;21.33;;;15.77;;
6288;SDS011;3177;49.880;8.836;2024-01-30T08:54:40;23.17;;;16.10;;
6288;SDS011;3177;49.880;8.836;2024-01-30T08:57:08;17.33;;;12.33;;
6288;SDS011;3177;49.880;8.836;2024-01-30T08:59:35;17.27;;;11.60;;
6288;SDS011;3177;49.880;8.836;2024-01-30T09:02:02;16.17;;;13.00;;
6288;SDS011;3177;49.880;8.836;2024-01-30T09:04:30;19.33;;;13.00;;
6288;SDS011;3177;49.880;8.836;2024-01-30T09:06:58;22.73;;;14.70;;
6288;SDS011;3177;49.880;8.836;2024-01-30T09:09:25;22.73;;;12.97;;
6288;SDS011;3177;49.880;8.836;2024-01-30T09:11:52;22.17;;;15.40;;
6288;SDS011;3177;49.880;8.836;2024-01-30T09:14:21;18.07;;;13.10;;
6288;SDS011;3177;49.880;8.836;2024-01-30T09:16:48;21.90;;;14.40;;
6288;SDS011;3177;49.880;8.836;2024-01-30T09:19:15;21.23;;;13.90;;
6288;SDS011;3177;49.880;8.836;2024-01-30T09:21:42;22.63;;;14.17;;
6288;SDS011;3177;49.880;8.836;2024-01-30T09:24:09;20.00;;;15.27;;
6288;SDS011;3177;49.880;8.836;2024-01-30T09:26:36;27.40;;;16.00;;
6288;SDS011;3177;49.880;8.836;2024-01-30T09:29:03;21.97;;;14.57;;
6288;SDS011;3177;49.880;8.836;2024-01-30T09:31:32;23.97;;;15.07;;
6288;SDS011;3177;49.880;8.836;2024-01-30T09:33:59;25.70;;;15.57;;
6288;SDS011;3177;49.880;8.836;2024-01-30T09:36:26;22.53;;;14.87;;
6288;SDS011;3177;49.880;8.836;2024-01-30T09:38:53;17.53;;;12.90;;
6288;SDS011;3177;49.880;8.836;2024-01-30T09:41:20;21.00;;;14.20;;
6288;SDS011;3177;49.880;8.836;2024-01-30T09:43:52;20.50;;;14.63;;
6288;SDS011;3177;49.880;8.836;2024-01-30T09:46:23;28.50;;;15.17;;
6288;SDS011;3177;49.880;8.836;2024-01-30T09:48:54;19.80;;;13.73;;
6288;SDS011;3177;49.880;8.836;2024-01-30T09:51:21;23.10;;;14.77;;
6288;SDS011;3177;49.880;8.836;2024-01-30T09:53:49;21.53;;;14.50;;
6288;SDS011;3177;49.880;8.836;2024-01-30T09:56:16;21.43;;;13.50;;
6288;SDS011;3177;49.880;8.836;2024-01-30T09:58:43;19.17;;;14.20;;
6288;SDS011;3177;49.880;8.836;2024-01-30T10:01:10;25.43;;;15.70;;
6288;SDS011;3177;49.880;8.836;2024-01-30T10:03:37;21.43;;;14.07;;
6288;SDS011;3177;49.880;8.836;2024-01-30T10:06:06;22.53;;;13.97;;
6288;SDS011;3177;49.880;8.836;2024-01-30T10:08:33;22.63;;;14.27;;
6288;SDS011;3177;49.880;8.836;2024-01-30T10:11:00;21.13;;;14.93;;
6288;SDS011;3177;49.880;8.836;2024-01-30T10:13:28;20.63;;;15.57;;
6288;SDS011;3177;49.880;8.836;2024-01-30T10:15:55;24.63;;;15.30;;
6288;SDS011;3177;49.880;8.836;2024-01-30T10:18:23;23.90;;;16.33;;
6288;SDS011;3177;49.880;8.836;2024-01-30T10:20:50;21.83;;;15.03;;
6288;SDS011;3177;49.880;8.836;2024-01-30T10:23:19;39.57;;;17.37;;
6288;SDS011;3177;49.880;8.836;2024-01-30T10:25:46;25.50;;;17.60;;
6288;SDS011;3177;49.880;8.836;2024-01-30T10:28:13;27.27;;;17.37;;
6288;SDS011;3177;49.880;8.836;2024-01-30T10:30:40;31.27;;;17.70;;
6288;SDS011;3177;49.880;8.836;2024-01-30T10:33:07;28.00;;;17.07;;
6288;SDS011;3177;49.880;8.836;2024-01-30T10:35:34;29.03;;;18.03;;
6288;SDS011;3177;49.880;8.836;2024-01-30T10:38:02;29.53;;;17.63;;
6288;SDS011;3177;49.880;8.836;2024-01-30T10:40:31;26.63;;;16.87;;
6288;SDS011;3177;49.880;8.836;2024-01-30T10:43:00;29.70;;;17.93;;
6288;SDS011;3177;49.880;8.836;2024-01-30T10:45:28;29.00;;;17.47;;
6288;SDS011;3177;49.880;8.836;2024-01-30T10:47:56;29.70;;;17.90;;
6288;SDS011;3177;49.880;8.836;2024-01-30T10:50:25;32.63;;;19.27;;
6288;SDS011;3177;49.880;8.836;2024-01-30T10:52:52;26.50;;;18.20;;
6288;SDS011;3177;49.880;8.836;2024-01-30T10:55:20;29.03;;;19.53;;
6288;SDS011;3177;49.880;8.836;2024-01-30T10:57:50;29.90;;;19.77;;
6288;SDS011;3177;49.880;8.836;2024-01-30T11:00:18;29.70;;;18.40;;
6288;SDS011;3177;49.880;8.836;2024-01-30T11:02:48;32.50;;;19.43;;
6288;SDS011;3177;49.880;8.836;2024-01-30T11:05:22;30.53;;;19.53;;
6288;SDS011;3177;49.880;8.836;2024-01-30T11:07:50;27.33;;;19.20;;
6288;SDS011;3177;49.880;8.836;2024-01-30T11:10:17;28.87;;;20.10;;
6288;SDS011;3177;49.880;8.836;2024-01-30T11:12:45;32.10;;;20.73;;
6288;SDS011;3177;49.880;8.836;2024-01-30T11:15:15;30.03;;;20.83;;
6288;SDS011;3177;49.880;8.836;2024-01-30T11:17:42;33.80;;;21.10;;
6288;SDS011;3177;49.880;8.836;2024-01-30T11:20:10;32.27;;;21.27;;
6288;SDS011;3177;49.880;8.836;2024-01-30T11:22:40;29.63;;;20.73;;
6288;SDS011;3177;49.880;8.836;2024-01-30T11:25:10;37.37;;;22.43;;
6288;SDS011;3177;49.880;8.836;2024-01-30T11:27:39;36.77;;;21.00;;
6288;SDS011;3177;49.880;8.836;2024-01-30T11:30:06;31.77;;;22.17;;
6288;SDS011;3177;49.880;8.836;2024-01-30T11:32:35;31.47;;;23.20;;
6288;SDS011;3177;49.880;8.836;2024-01-30T11:35:03;31.53;;;20.60;;
6288;SDS011;3177;49.880;8.836;2024-01-30T11:37:31;28.33;;;21.40;;
6288;SDS011;3177;49.880;8.836;2024-01-30T11:39:58;38.93;;;23.30;;
6288;SDS011;3177;49.880;8.836;2024-01-30T11:42:25;34.27;;;22.40;;
6288;SDS011;3177;49.880;8.836;2024-01-30T11:44:53;34.13;;;22.37;;
6288;SDS011;3177;49.880;8.836;2024-01-30T11:47:23;27.03;;;19.80;;
6288;SDS011;3177;49.880;8.836;2024-01-30T11:49:51;29.37;;;19.67;;
6288;SDS011;3177;49.880;8.836;2024-01-30T11:52:18;32.27;;;19.53;;
6288;SDS011;3177;49.880;8.836;2024-01-30T11:54:45;28.97;;;19.33;;
6288;SDS011;3177;49.880;8.836;2024-01-30T11:57:12;29.53;;;20.73;;
6288;SDS011;3177;49.880;8.836;2024-01-30T11:59:39;25.13;;;17.30;;
6288;SDS011;3177;49.880;8.836;2024-01-30T12:02:06;29.47;;;18.33;;
6288;SDS011;3177;49.880;8.836;2024-01-30T12:04:33;25.20;;;18.50;;
6288;SDS011;3177;49.880;8.836;2024-01-30T12:07:02;29.83;;;19.07;;
6288;SDS011;3177;49.880;8.836;2024-01-30T12:09:29;27.97;;;18.60;;
6288;SDS011;3177;49.880;8.836;2024-01-30T12:11:56;26.33;;;18.30;;
6288;SDS011;3177;49.880;8.836;2024-01-30T12:14:23;34.10;;;20.30;;
6288;SDS011;3177;49.880;8.836;2024-01-30T12:16:51;36.33;;;20.50;;
6288;SDS011;3177;49.880;8.836;2024-01-30T12:19:21;32.37;;;18.37;;
6288;SDS011;3177;49.880;8.836;2024-01-30T12:21:53;24.30;;;18.80;;
6288;SDS011;3177;49.880;8.836;2024-01-30T12:24:22;23.97;;;17.77;;
6288;SDS011;3177;49.880;8.836;2024-01-30T12:26:49;27.97;;;18.40;;
6288;SDS011;3177;49.880;8.836;2024-01-30T12:29:19;27.40;;;17.20;;
6288;SDS011;3177;49.880;8.836;2024-01-30T12:31:47;27.07;;;16.40;;
6288;SDS011;3177;49.880;8.836;2024-01-30T12:34:14;29.67;;;16.70;;
6288;SDS011;3177;49.880;8.836;2024-01-30T12:36:42;22.63;;;14.57;;
6288;SDS011;3177;49.880;8.836;2024-01-30T12:39:10;19.33;;;14.33;;
6288;SDS011;3177;49.880;8.836;2024-01-30T12:41:40;23.03;;;14.80;;
6288;SDS011;3177;49.880;8.836;2024-01-30T12:44:07;19.70;;;14.30;;
6288;SDS011;3177;49.880;8.836;2024-01-30T12:46:34;21.03;;;12.90;;
6288;SDS011;3177;49.880;8.836;2024-01-30T12:49:01;22.10;;;12.83;;
6288;SDS011;3177;49.880;8.836;2024-01-30T12:51:29;20.57;;;13.97;;
6288;SDS011;3177;49.880;8.836;2024-01-30T12:53:56;19.07;;;11.60;;
6288;SDS011;3177;49.880;8.836;2024-01-30T12:56:23;15.67;;;11.03;;
6288;SDS011;3177;49.880;8.836;2024-01-30T12:58:51;16.93;;;11.83;;
6288;SDS011;3177;49.880;8.836;2024-01-30T13:01:19;17.10;;;11.77;;
6288;SDS011;3177;49.880;8.836;2024-01-30T13:03:46;18.10;;;11.90;;
6288;SDS011;3177;49.880;8.836;2024-01-30T13:06:13;17.27;;;11.80;;
6288;SDS011;3177;49.880;8.836;2024-01-30T13:08:41;18.77;;;11.83;;
6288;SDS011;3177;49.880;8.836;2024-01-30T13:11:08;19.40;;;12.63;;
6288;SDS011;3177;49.880;8.836;2024-01-30T13:13:35;16.80;;;12.13;;
6288;SDS011;3177;49.880;8.836;2024-01-30T13:16:03;20.17;;;11.07;;
6288;SDS011;3177;49.880;8.836;2024-01-30T13:18:31;18.53;;;12.00;;
6288;SDS011;3177;49.880;8.836;2024-01-30T13:20:58;22.47;;;12.37;;
6288;SDS011;3177;49.880;8.836;2024-01-30T13:23:25;15.90;;;11.83;;
6288;SDS011;3177;49.880;8.836;2024-01-30T13:25:52;23.57;;;12.23;;
6288;SDS011;3177;49.880;8.836;2024-01-30T13:28:22;13.90;;;10.97;;
6288;SDS011;3177;49.880;8.836;2024-01-30T13:30:50;16.50;;;11.53;;
6288;SDS011;3177;49.880;8.836;2024-01-30T13:33:19;16.83;;;11.83;;
6288;SDS011;3177;49.880;8.836;2024-01-30T13:35:46;20.17;;;12.17;;
6288;SDS011;3177;49.880;8.836;2024-01-30T13:38:13;14.33;;;10.97;;
6288;SDS011;3177;49.880;8.836;2024-01-30T13:40:40;22.00;;;12.13;;
6288;SDS011;3177;49.880;8.836;2024-01-30T13:43:07;20.27;;;12.33;;
6288;SDS011;3177;49.880;8.836;2024-01-30T13:45:34;18.83;;;11.60;;
6288;SDS011;3177;49.880;8.836;2024-01-30T13:48:02;21.33;;;11.27;;
6288;SDS011;3177;49.880;8.836;2024-01-30T13:50:30;15.23;;;11.13;;
6288;SDS011;3177;49.880;8.836;2024-01-30T13:52:58;13.93;;;10.97;;
6288;SDS011;3177;49.880;8.836;2024-01-30T13:55:25;15.10;;;11.47;;
6288;SDS011;3177;49.880;8.836;2024-01-30T13:57:52;16.93;;;11.67;;
6288;SDS011;3177;49.880;8.836;2024-01-30T14:00:20;18.13;;;11.63;;
6288;SDS011;3177;49.880;8.836;2024-01-30T14:02:47;17.97;;;12.67;;
6288;SDS011;3177;49.880;8.836;2024-01-30T14:05:14;13.03;;;11.00;;
6288;SDS011;3177;49.880;8.836;2024-01-30T14:07:43;19.03;;;12.27;;
6288;SDS011;3177;49.880;8.836;2024-01-30T14:10:11;11.17;;;9.83;;
6288;SDS011;3177;49.880;8.836;2024-01-30T14:12:38;11.40;;;8.73;;
6288;SDS011;3177;49.880;8.836;2024-01-30T14:15:07;11.93;;;6.43;;
6288;SDS011;3177;49.880;8.836;2024-01-30T14:17:35;10.20;;;6.57;;
6288;SDS011;3177;49.880;8.836;2024-01-30T14:20:02;9.10;;;6.30;;
6288;SDS011;3177;49.880;8.836;2024-01-30T14:22:29;7.47;;;5.50;;
6288;SDS011;3177;49.880;8.836;2024-01-30T14:24:58;7.40;;;5.37;;
6288;SDS011;3177;49.880;8.836;2024-01-30T14:27:25;7.63;;;4.37;;
6288;SDS011;3177;49.880;8.836;2024-01-30T14:29:52;6.13;;;4.17;;
6288;SDS011;3177;49.880;8.836;2024-01-30T14:32:19;6.30;;;4.00;;
6288;SDS011;3177;49.880;8.836;2024-01-30T14:34:46;7.87;;;5.13;;
6288;SDS011;3177;49.880;8.836;2024-01-30T14:37:13;5.07;;;4.57;;
6288;SDS011;3177;49.880;8.836;2024-01-30T14:39:40;4.80;;;4.10;;
6288;SDS011;3177;49.880;8.836;2024-01-30T14:42:09;5.10;;;4.60;;
6288;SDS011;3177;49.880;8.836;2024-01-30T14:44:36;5.47;;;4.47;;
6288;SDS011;3177;49.880;8.836;2024-01-30T14:47:04;6.83;;;4.53;;
6288;SDS011;3177;49.880;8.836;2024-01-30T14:49:31;6.47;;;5.10;;
6288;SDS011;3177;49.880;8.836;2024-01-30T14:51:58;6.13;;;4.87;;
6288;SDS011;3177;49.880;8.836;2024-01-30T14:54:25;7.67;;;5.00;;
6288;SDS011;3177;49.880;8.836;2024-01-30T14:56:52;5.90;;;4.40;;
6288;SDS011;3177;49.880;8.836;2024-01-30T14:59:21;7.37;;;5.47;;